Terminal Aerodrome Forecast
Issued by NWS

Home | Current Version | Previous Version | Text Only | Print | Product List | Glossary Off
Versions: 1 2 3 4 5 6 7 8 9 10 11 12 13 14 15 16 17 18 19 20

000
FTUS43 KBIS 250958 AAB
TAFDIK
TAF AMD
KDIK 250958Z 2510/2606 25011KT P6SM SCT070
      TEMPO 2510/2513 1/2SM FG
     FM251500 26024G35KT P6SM BKN130
     FM260100 28015KT P6SM BKN060=

USA.gov is the U.S. government's official web portal to all federal, state and local government web resources and services.